createdAt,value
2023-04-26T00:01:08.343Z,4.32
2023-04-26T00:03:36.007Z,5.05
2023-04-26T00:06:10.406Z,4.03
2023-04-26T00:08:38.550Z,3.42
2023-04-26T00:11:06.688Z,3.42
2023-04-26T00:13:34.358Z,3.88
2023-04-26T00:16:05.242Z,3.00
2023-04-26T00:18:34.982Z,4.28
2023-04-26T00:21:02.828Z,4.28
2023-04-26T00:23:30.126Z,4.93
2023-04-26T00:25:57.232Z,4.18
2023-04-26T00:28:30.463Z,5.05
2023-04-26T00:30:59.320Z,4.60
2023-04-26T00:33:26.914Z,4.47
2023-04-26T00:35:54.313Z,5.13
2023-04-26T00:38:21.881Z,3.72
2023-04-26T00:40:49.498Z,3.42
2023-04-26T00:43:17.422Z,4.63
2023-04-26T00:45:45.699Z,3.33
2023-04-26T00:48:14.189Z,3.88
2023-04-26T00:50:43.604Z,4.75
2023-04-26T00:53:14.907Z,4.43
2023-04-26T00:55:43.927Z,3.55
2023-04-26T00:58:12.823Z,3.30
2023-04-26T01:00:40.491Z,5.03
2023-04-26T01:03:08.786Z,3.83
2023-04-26T01:05:39.014Z,5.55
2023-04-26T01:08:07.840Z,4.93
2023-04-26T01:10:35.991Z,4.35
2023-04-26T01:13:04.132Z,3.80
2023-04-26T01:15:34.952Z,3.58
2023-04-26T01:18:03.202Z,4.22
2023-04-26T01:20:30.796Z,4.80
2023-04-26T01:22:58.173Z,3.30
2023-04-26T01:25:25.320Z,3.53
2023-04-26T01:27:52.635Z,3.15
2023-04-26T01:30:19.655Z,3.70
2023-04-26T01:32:47.003Z,3.75
2023-04-26T01:35:14.295Z,2.85
2023-04-26T01:37:41.963Z,3.55
2023-04-26T01:40:10.489Z,4.35
2023-04-26T01:42:37.832Z,3.50
2023-04-26T01:45:05.624Z,3.85
2023-04-26T01:47:52.985Z,2.97
2023-04-26T01:50:20.403Z,3.28
2023-04-26T01:52:48.347Z,3.42
2023-04-26T01:55:15.907Z,3.40
2023-04-26T01:57:43.835Z,4.15
2023-04-26T02:00:11.535Z,3.60
2023-04-26T02:02:41.904Z,3.42
2023-04-26T02:05:11.284Z,2.78
2023-04-26T02:07:39.141Z,3.50
2023-04-26T02:10:07.210Z,3.25
2023-04-26T02:12:34.590Z,3.15
2023-04-26T02:15:01.636Z,7.50
2023-04-26T02:17:29.309Z,3.35
2023-04-26T02:19:57.102Z,2.97
2023-04-26T02:22:26.628Z,2.80
2023-04-26T02:24:53.881Z,2.55
2023-04-26T02:27:21.370Z,3.58
2023-04-26T02:29:48.963Z,4.30
2023-04-26T02:32:16.620Z,2.67
2023-04-26T02:34:44.812Z,2.60
2023-04-26T02:37:12.664Z,2.53
2023-04-26T02:39:39.997Z,3.08
2023-04-26T02:42:10.888Z,3.05
2023-04-26T02:44:39.621Z,2.55
2023-04-26T02:47:08.481Z,2.67
2023-04-26T02:49:37.309Z,3.10
2023-04-26T02:52:05.766Z,2.70
2023-04-26T02:54:34.092Z,2.45
2023-04-26T02:57:01.470Z,3.35
2023-04-26T02:59:28.593Z,2.67
2023-04-26T03:01:56.157Z,2.85
2023-04-26T03:04:23.679Z,2.78
2023-04-26T03:06:51.131Z,2.95
2023-04-26T03:09:18.290Z,3.15
2023-04-26T03:11:47.780Z,3.00
2023-04-26T03:14:17.388Z,3.75
2023-04-26T03:16:45.638Z,2.80
2023-04-26T03:19:12.943Z,2.72
2023-04-26T03:21:41.583Z,2.95
2023-04-26T03:24:08.614Z,2.53
2023-04-26T03:26:35.952Z,3.45
2023-04-26T03:29:03.749Z,3.20
2023-04-26T03:31:31.407Z,2.85
2023-04-26T03:33:59.379Z,3.13
2023-04-26T03:36:28.576Z,2.75
2023-04-26T03:38:56.303Z,3.72
2023-04-26T03:41:24.505Z,2.92
2023-04-26T03:43:53.081Z,3.20
2023-04-26T03:46:20.593Z,4.30
2023-04-26T03:48:48.714Z,3.45
2023-04-26T03:51:16.092Z,3.47
2023-04-26T03:53:43.122Z,2.25
2023-04-26T03:56:10.362Z,3.15
2023-04-26T03:58:37.689Z,3.50
2023-04-26T04:01:05.428Z,4.93
2023-04-26T04:03:33.132Z,3.63
2023-04-26T04:06:00.883Z,2.78
2023-04-26T04:08:27.985Z,3.30
2023-04-26T04:10:56.743Z,3.15
2023-04-26T04:13:23.967Z,2.83
2023-04-26T04:15:51.793Z,4.93
2023-04-26T04:18:19.185Z,3.58
2023-04-26T04:20:47.027Z,3.90
2023-04-26T04:23:14.080Z,3.20
2023-04-26T04:25:44.063Z,3.53
2023-04-26T04:30:43.653Z,2.97
2023-04-26T04:33:10.809Z,4.22
2023-04-26T04:35:38.126Z,3.22
2023-04-26T04:38:06.131Z,3.50
2023-04-26T04:40:33.545Z,3.75
2023-04-26T04:43:03.651Z,3.72
2023-04-26T04:45:32.370Z,4.70
2023-04-26T04:48:01.307Z,3.72
2023-04-26T04:50:29.292Z,4.00
2023-04-26T04:52:56.416Z,2.63
2023-04-26T04:55:23.874Z,3.55
2023-04-26T04:57:52.109Z,2.92
2023-04-26T05:00:21.646Z,2.88
2023-04-26T05:03:02.952Z,3.45
2023-04-26T05:05:31.381Z,3.05
2023-04-26T05:07:58.978Z,2.90
2023-04-26T05:10:27.455Z,2.80
2023-04-26T05:12:54.506Z,2.90
2023-04-26T05:15:22.964Z,3.65
2023-04-26T05:17:51.314Z,3.13
2023-04-26T05:20:22.769Z,2.63
2023-04-26T05:22:50.600Z,2.15
2023-04-26T05:25:19.215Z,3.05
2023-04-26T05:27:49.251Z,6.22
2023-04-26T05:30:25.240Z,4.47
2023-04-26T05:33:21.871Z,3.33
2023-04-26T05:35:57.984Z,3.50
2023-04-26T05:38:25.667Z,3.03
2023-04-26T05:40:52.983Z,3.20
2023-04-26T05:43:20.081Z,2.75
2023-04-26T05:45:55.178Z,2.30
2023-04-26T05:48:23.646Z,3.83
2023-04-26T05:50:51.959Z,3.05
2023-04-26T05:53:19.972Z,3.28
2023-04-26T05:55:47.881Z,4.43
2023-04-26T05:58:15.724Z,3.30
2023-04-26T06:00:43.585Z,3.25
2023-04-26T06:03:11.107Z,3.20
2023-04-26T06:05:39.329Z,2.80
2023-04-26T06:08:06.430Z,2.78
2023-04-26T06:10:35.466Z,3.85
2023-04-26T06:13:02.466Z,3.10
2023-04-26T06:18:48.808Z,3.70
2023-04-26T06:21:16.272Z,3.13
2023-04-26T06:23:43.229Z,3.25
2023-04-26T06:26:10.695Z,3.30
2023-04-26T06:28:39.901Z,2.70
2023-04-26T06:33:36.315Z,2.90
2023-04-26T06:36:03.898Z,3.10
2023-04-26T06:38:31.011Z,2.60
2023-04-26T06:40:59.036Z,3.17
2023-04-26T06:43:26.403Z,3.85
2023-04-26T06:46:07.963Z,3.35
2023-04-26T06:48:35.460Z,2.88
2023-04-26T06:51:08.580Z,3.57
2023-04-26T06:53:38.585Z,3.00
2023-04-26T06:56:06.238Z,3.00
2023-04-26T06:58:33.394Z,4.85
2023-04-26T07:01:01.240Z,3.00
2023-04-26T07:03:29.376Z,15.73
2023-04-26T07:05:56.846Z,3.45
2023-04-26T07:08:23.844Z,3.10
2023-04-26T07:10:51.782Z,4.88
2023-04-26T07:13:18.996Z,2.75
2023-04-26T07:15:46.434Z,2.40
2023-04-26T07:18:13.547Z,2.58
2023-04-26T07:20:40.858Z,3.20
2023-04-26T07:23:07.911Z,2.88
2023-04-26T07:25:35.531Z,3.10
2023-04-26T07:28:02.879Z,3.40
2023-04-26T07:30:32.474Z,2.35
2023-04-26T07:32:59.589Z,2.58
2023-04-26T07:35:26.989Z,2.95
2023-04-26T07:37:54.104Z,3.25
2023-04-26T07:40:22.849Z,2.75
2023-04-26T07:42:50.746Z,2.90
2023-04-26T07:45:18.257Z,2.70
2023-04-26T07:47:45.539Z,3.33
2023-04-26T07:50:13.238Z,2.70
2023-04-26T07:52:40.468Z,3.05
2023-04-26T07:55:08.700Z,3.00
2023-04-26T07:57:36.334Z,3.33
2023-04-26T08:00:10.440Z,2.85
2023-04-26T08:02:45.196Z,2.53
2023-04-26T08:05:14.237Z,3.58
2023-04-26T08:07:42.785Z,3.05
2023-04-26T08:10:11.078Z,2.72
2023-04-26T08:12:38.665Z,2.55
2023-04-26T08:15:06.563Z,2.75
2023-04-26T08:17:34.768Z,3.17
2023-04-26T08:20:02.311Z,3.55
2023-04-26T08:22:29.588Z,2.75
2023-04-26T08:24:56.969Z,3.17
2023-04-26T08:27:23.994Z,3.08
2023-04-26T08:29:51.471Z,3.03
2023-04-26T08:32:18.614Z,2.63
2023-04-26T08:34:45.919Z,2.67
2023-04-26T08:37:12.919Z,3.30
2023-04-26T08:39:40.303Z,3.05
2023-04-26T08:42:14.477Z,2.50
2023-04-26T08:44:43.441Z,10.43
2023-04-26T08:47:26.015Z,4.78
2023-04-26T08:50:02.774Z,2.50
2023-04-26T08:52:31.846Z,2.38
2023-04-26T08:55:00.360Z,3.40
2023-04-26T08:57:27.687Z,2.35
2023-04-26T08:59:57.837Z,2.58
2023-04-26T09:02:25.295Z,2.22
2023-04-26T09:04:52.968Z,2.60
2023-04-26T09:07:29.842Z,2.78
2023-04-26T09:09:59.020Z,2.75
2023-04-26T09:12:26.624Z,2.72
2023-04-26T09:14:54.099Z,2.65
2023-04-26T09:17:42.216Z,3.17
2023-04-26T09:20:31.407Z,2.75
2023-04-26T09:23:06.748Z,3.47
2023-04-26T09:25:34.397Z,2.15
2023-04-26T09:28:03.727Z,2.63
2023-04-26T09:30:38.026Z,3.03
2023-04-26T09:33:06.828Z,2.60
2023-04-26T09:35:36.472Z,2.50
2023-04-26T09:38:13.856Z,2.17
2023-04-26T09:40:43.289Z,2.50
2023-04-26T09:43:12.626Z,2.88
2023-04-26T09:45:57.727Z,2.50
2023-04-26T09:48:28.619Z,2.45
2023-04-26T09:50:58.045Z,2.22
2023-04-26T09:53:37.369Z,2.20
2023-04-26T09:56:13.753Z,2.28
2023-04-26T09:58:58.765Z,1.95
2023-04-26T10:01:31.466Z,1.40
2023-04-26T10:04:01.991Z,1.38
2023-04-26T10:06:29.619Z,2.05
2023-04-26T10:08:56.866Z,1.90
2023-04-26T10:11:24.829Z,1.92
2023-04-26T10:13:52.114Z,1.90
2023-04-26T10:16:21.033Z,2.17
2023-04-26T10:18:49.365Z,2.00
2023-04-26T10:21:22.665Z,1.77
2023-04-26T10:23:50.453Z,2.13
2023-04-26T10:26:57.384Z,2.35
2023-04-26T10:29:26.187Z,1.70
2023-04-26T10:32:02.916Z,2.83
2023-04-26T10:34:31.760Z,1.75
2023-04-26T10:37:17.147Z,2.45
2023-04-26T10:39:46.208Z,2.67
2023-04-26T10:42:27.615Z,2.08
2023-04-26T10:44:57.067Z,2.45
2023-04-26T10:47:37.441Z,2.00
2023-04-26T10:50:13.561Z,3.13
2023-04-26T10:53:13.579Z,2.67
2023-04-26T10:55:42.177Z,3.25
2023-04-26T10:58:29.066Z,2.27
2023-04-26T11:01:13.354Z,3.30
2023-04-26T11:03:41.511Z,1.92
2023-04-26T11:06:15.404Z,2.58
2023-04-26T11:08:43.302Z,2.53
2023-04-26T11:11:12.196Z,2.72
2023-04-26T11:13:42.420Z,2.42
2023-04-26T11:16:11.681Z,1.83
2023-04-26T11:18:46.080Z,2.55
2023-04-26T11:21:17.778Z,2.47
2023-04-26T11:23:55.390Z,2.25
2023-04-26T11:26:22.683Z,2.30
2023-04-26T11:28:50.119Z,1.90
2023-04-26T11:31:19.064Z,2.17
2023-04-26T11:33:49.237Z,2.42
2023-04-26T11:36:19.697Z,2.38
2023-04-26T11:38:47.344Z,2.00
2023-04-26T11:41:14.483Z,2.75
2023-04-26T11:43:42.021Z,2.45
2023-04-26T11:46:10.149Z,2.45
2023-04-26T11:48:39.161Z,1.60
2023-04-26T11:51:08.419Z,2.30
2023-04-26T11:53:37.785Z,1.63
2023-04-26T11:56:25.293Z,1.75
2023-04-26T11:58:53.873Z,1.70
2023-04-26T12:01:22.279Z,2.47
2023-04-26T12:03:57.797Z,1.90
2023-04-26T12:06:33.997Z,3.42
2023-04-26T12:09:05.549Z,2.13
2023-04-26T12:11:32.850Z,2.58
2023-04-26T12:14:01.561Z,1.80
2023-04-26T12:16:28.805Z,1.38
2023-04-26T12:18:59.555Z,1.30
2023-04-26T12:21:30.488Z,2.30
2023-04-26T12:23:58.521Z,1.58
2023-04-26T12:26:46.168Z,1.75
2023-04-26T12:29:13.595Z,2.15
2023-04-26T12:31:40.996Z,3.25
2023-04-26T12:34:08.510Z,1.77
2023-04-26T12:36:35.615Z,2.33
2023-04-26T12:39:05.420Z,2.05
2023-04-26T12:41:32.685Z,2.53
2023-04-26T12:44:00.149Z,2.03
2023-04-26T12:46:27.444Z,2.13
2023-04-26T12:48:54.992Z,1.75
2023-04-26T12:51:22.193Z,1.35
2023-04-26T12:53:50.867Z,1.75
2023-04-26T12:56:18.219Z,3.78
2023-04-26T12:58:45.901Z,1.95
2023-04-26T13:01:14.216Z,1.63
2023-04-26T13:03:41.889Z,2.28
2023-04-26T13:06:09.430Z,1.60
2023-04-26T13:08:36.929Z,1.73
2023-04-26T13:11:04.302Z,2.42
2023-04-26T13:13:42.213Z,2.92
2023-04-26T13:16:10.863Z,2.65
2023-04-26T13:18:38.703Z,1.40
2023-04-26T13:21:06.043Z,4.60
2023-04-26T13:23:33.592Z,11.48
2023-04-26T13:26:00.786Z,3.08
2023-04-26T13:28:28.342Z,3.15
2023-04-26T13:30:56.083Z,1.98
2023-04-26T13:33:24.656Z,2.00
2023-04-26T13:35:52.217Z,1.30
2023-04-26T13:38:19.625Z,1.42
2023-04-26T13:40:47.271Z,1.83
2023-04-26T13:43:14.706Z,1.95
2023-04-26T13:45:41.928Z,1.33
2023-04-26T13:48:09.514Z,1.65
2023-04-26T13:50:37.582Z,1.63
2023-04-26T13:53:06.168Z,2.30
2023-04-26T13:55:33.626Z,1.55
2023-04-26T13:58:01.420Z,1.50
2023-04-26T14:00:30.007Z,1.67
2023-04-26T14:02:58.518Z,1.85
2023-04-26T14:05:26.469Z,2.78
2023-04-26T14:07:55.182Z,3.05
2023-04-26T14:10:23.260Z,2.10
2023-04-26T14:12:51.111Z,2.55
2023-04-26T14:15:18.266Z,1.90
2023-04-26T14:17:48.854Z,1.80
2023-04-26T14:20:16.226Z,6.63
2023-04-26T14:22:43.810Z,4.20
2023-04-26T14:25:11.125Z,2.05
2023-04-26T14:27:39.564Z,3.03
2023-04-26T14:30:07.738Z,4.10
2023-04-26T14:32:35.262Z,1.88
2023-04-26T14:35:02.700Z,2.10
2023-04-26T14:37:30.184Z,1.73
2023-04-26T14:39:57.400Z,2.20
2023-04-26T14:42:26.112Z,1.80
2023-04-26T14:49:43.168Z,3.45
2023-04-26T14:52:12.599Z,1.70
2023-04-26T14:54:40.648Z,1.60
2023-04-26T14:57:08.090Z,1.70
2023-04-26T14:59:35.494Z,4.65
2023-04-26T15:02:03.757Z,1.92
2023-04-26T15:04:31.551Z,1.60
2023-04-26T15:06:59.006Z,3.50
2023-04-26T15:09:27.871Z,1.50
2023-04-26T15:11:57.107Z,1.10
2023-04-26T15:14:24.633Z,1.45
2023-04-26T15:16:51.749Z,1.60
2023-04-26T15:19:19.226Z,1.50
2023-04-26T15:21:46.568Z,1.40
2023-04-26T15:24:14.016Z,1.48
2023-04-26T15:26:41.429Z,2.03
2023-04-26T15:29:09.051Z,2.45
2023-04-26T15:31:36.307Z,1.85
2023-04-26T15:34:04.899Z,1.60
2023-04-26T15:36:32.562Z,1.50
2023-04-26T15:39:00.311Z,1.50
2023-04-26T15:41:27.922Z,1.58
2023-04-26T15:43:55.984Z,2.05
2023-04-26T15:46:23.362Z,1.13
2023-04-26T15:48:51.290Z,1.45
2023-04-26T15:51:18.808Z,1.40
2023-04-26T15:53:46.432Z,1.15
2023-04-26T15:56:15.559Z,1.70
2023-04-26T15:58:45.177Z,2.22
2023-04-26T16:01:12.922Z,1.77
2023-04-26T16:03:48.013Z,1.70
2023-04-26T16:06:16.254Z,1.33
2023-04-26T16:08:45.048Z,1.73
2023-04-26T16:11:12.603Z,1.27
2023-04-26T16:13:40.163Z,2.05
2023-04-26T16:16:11.710Z,1.90
2023-04-26T16:18:40.019Z,2.60
2023-04-26T16:21:09.873Z,1.95
2023-04-26T16:23:38.093Z,1.33
2023-04-26T16:26:14.341Z,1.63
2023-04-26T16:28:43.392Z,1.98
2023-04-26T16:31:12.130Z,1.95
2023-04-26T16:33:39.867Z,1.88
2023-04-26T16:36:10.300Z,1.40
2023-04-26T16:38:39.622Z,1.20
2023-04-26T16:41:07.300Z,3.08
2023-04-26T16:43:35.148Z,1.58
2023-04-26T16:46:07.403Z,1.65
2023-04-26T16:48:37.052Z,1.92
2023-04-26T16:51:07.431Z,1.55
2023-04-26T16:53:37.161Z,1.52
2023-04-26T16:56:04.707Z,2.80
2023-04-26T16:58:32.691Z,2.78
2023-04-26T17:01:00.139Z,4.60
2023-04-26T17:03:28.509Z,5.05
2023-04-26T17:05:56.260Z,3.55
2023-04-26T17:08:23.934Z,2.35
2023-04-26T17:10:51.970Z,1.40
2023-04-26T17:13:19.983Z,2.85
2023-04-26T17:15:47.636Z,1.90
2023-04-26T17:18:15.396Z,1.83
2023-04-26T17:20:42.738Z,1.88
2023-04-26T17:23:10.272Z,1.80
2023-04-26T17:25:38.003Z,3.72
2023-04-26T17:28:05.646Z,2.58
2023-04-26T17:30:32.874Z,2.83
2023-04-26T17:33:00.530Z,3.05
2023-04-26T17:35:28.029Z,3.72
2023-04-26T17:37:56.253Z,6.53
2023-04-26T17:40:23.680Z,2.58
2023-04-26T17:42:51.422Z,2.05
2023-04-26T17:45:18.867Z,2.45
2023-04-26T17:47:46.539Z,4.60
2023-04-26T17:50:15.201Z,2.10
2023-04-26T17:52:43.013Z,3.23
2023-04-26T17:55:10.476Z,2.22
2023-04-26T17:57:38.099Z,5.25
2023-04-26T18:00:12.826Z,4.93
2023-04-26T18:02:43.975Z,3.63
2023-04-26T18:05:11.874Z,10.68
2023-04-26T18:07:39.458Z,6.65
2023-04-26T18:10:07.823Z,6.05
2023-04-26T18:12:36.790Z,7.53
2023-04-26T18:15:04.740Z,7.90
2023-04-26T18:17:36.095Z,6.47
2023-04-26T18:20:03.944Z,4.68
2023-04-26T18:22:31.800Z,2.13
2023-04-26T18:24:59.445Z,2.65
2023-04-26T18:27:27.320Z,2.28
2023-04-26T18:29:54.625Z,3.65
2023-04-26T18:32:22.044Z,4.57
2023-04-26T18:34:50.614Z,3.00
2023-04-26T18:37:31.007Z,5.70
2023-04-26T18:39:58.426Z,4.97
2023-04-26T18:42:26.112Z,6.90
2023-04-26T18:44:53.568Z,8.32
2023-04-26T18:47:23.737Z,8.85
2023-04-26T18:49:51.293Z,10.82
2023-04-26T18:52:18.993Z,13.23
2023-04-26T18:54:46.497Z,10.55
2023-04-26T18:57:14.960Z,23.73
2023-04-26T18:59:42.227Z,11.32
2023-04-26T19:02:10.100Z,16.77
2023-04-26T19:04:37.854Z,22.73
2023-04-26T19:07:05.645Z,16.00
2023-04-26T19:09:46.700Z,9.25
2023-04-26T19:12:21.401Z,13.07
2023-04-26T19:14:48.816Z,17.55
2023-04-26T19:17:16.830Z,9.43
2023-04-26T19:19:44.200Z,9.50
2023-04-26T19:22:12.625Z,8.98
2023-04-26T19:24:40.218Z,9.98
2023-04-26T19:27:08.265Z,11.63
2023-04-26T19:29:41.864Z,10.63
2023-04-26T19:32:10.473Z,10.10
2023-04-26T19:34:39.299Z,36.85
2023-04-26T19:37:07.502Z,33.72
2023-04-26T19:39:35.247Z,25.70
2023-04-26T19:42:03.569Z,27.00
2023-04-26T19:44:31.522Z,37.58
2023-04-26T19:46:59.397Z,12.00
2023-04-26T19:49:28.912Z,13.98
2023-04-26T19:51:57.175Z,10.77
2023-04-26T19:54:24.847Z,8.68
2023-04-26T19:56:52.648Z,8.40
2023-04-26T19:59:19.932Z,8.88
2023-04-26T20:01:47.551Z,6.80
2023-04-26T20:04:15.716Z,7.53
2023-04-26T20:06:43.404Z,8.23
2023-04-26T20:09:11.249Z,11.57
2023-04-26T20:11:38.796Z,27.77
2023-04-26T20:14:06.998Z,26.27
2023-04-26T20:16:35.485Z,15.18
2023-04-26T20:19:05.056Z,15.10
2023-04-26T20:21:32.990Z,7.70
2023-04-26T20:24:00.964Z,7.55
2023-04-26T20:26:28.675Z,7.20
2023-04-26T20:28:56.419Z,6.30
2023-04-26T20:31:23.981Z,9.63
2023-04-26T20:33:51.768Z,6.28
2023-04-26T20:36:19.947Z,8.23
2023-04-26T20:38:47.887Z,9.65
2023-04-26T20:41:15.510Z,5.40
2023-04-26T20:43:43.354Z,11.13
2023-04-26T20:46:11.005Z,11.75
2023-04-26T20:48:38.930Z,13.20
2023-04-26T20:51:06.626Z,11.13
2023-04-26T20:53:34.488Z,9.70
2023-04-26T20:56:01.919Z,15.48
2023-04-26T20:58:29.890Z,18.35
2023-04-26T21:00:57.794Z,16.25
2023-04-26T21:03:25.573Z,20.42
2023-04-26T21:05:53.044Z,18.58
2023-04-26T21:08:20.536Z,11.07
2023-04-26T21:10:47.806Z,11.82
2023-04-26T21:13:15.512Z,13.40
2023-04-26T21:15:42.794Z,9.40
2023-04-26T21:18:10.407Z,9.57
2023-04-26T21:20:38.246Z,12.05
2023-04-26T21:23:05.972Z,8.52
2023-04-26T21:25:33.330Z,9.02
2023-04-26T21:28:01.094Z,8.52
2023-04-26T21:30:28.587Z,9.65
2023-04-26T21:32:56.816Z,12.77
2023-04-26T21:35:24.653Z,22.50
2023-04-26T21:37:52.534Z,11.90
2023-04-26T21:40:20.479Z,13.75
2023-04-26T21:43:03.618Z,9.32
2023-04-26T21:45:32.131Z,18.08
2023-04-26T21:47:59.778Z,11.23
2023-04-26T21:50:27.182Z,11.05
2023-04-26T21:52:54.627Z,8.57
2023-04-26T21:55:21.701Z,9.50
2023-04-26T21:57:49.572Z,8.50
2023-04-26T22:00:18.245Z,8.00
2023-04-26T22:02:47.472Z,6.22
2023-04-26T22:05:14.709Z,7.22
2023-04-26T22:07:42.038Z,6.63
2023-04-26T22:10:09.538Z,7.28
2023-04-26T22:12:37.183Z,9.02
2023-04-26T22:15:04.802Z,7.07
2023-04-26T22:17:32.493Z,5.57
2023-04-26T22:19:59.888Z,6.55
2023-04-26T22:22:27.646Z,5.13
2023-04-26T22:24:56.269Z,6.38
2023-04-26T22:27:23.794Z,6.97
2023-04-26T22:29:50.875Z,6.95
2023-04-26T22:32:18.303Z,7.65
2023-04-26T22:34:45.588Z,12.20
2023-04-26T22:37:20.242Z,11.63
2023-04-26T22:39:48.091Z,6.97
2023-04-26T22:42:15.720Z,8.60
2023-04-26T22:44:42.808Z,6.80
2023-04-26T22:47:10.155Z,7.10
2023-04-26T22:49:37.258Z,5.30
2023-04-26T22:52:11.732Z,4.60
2023-04-26T22:54:44.279Z,4.00
2023-04-26T22:57:12.000Z,3.63
2023-04-26T22:59:39.033Z,4.10
2023-04-26T23:02:07.080Z,3.83
2023-04-26T23:04:34.242Z,4.00
2023-04-26T23:07:01.819Z,3.17
2023-04-26T23:09:28.860Z,3.22
2023-04-26T23:11:56.688Z,3.58
2023-04-26T23:14:23.765Z,3.28
2023-04-26T23:16:52.083Z,4.95
2023-04-26T23:19:22.130Z,4.13
2023-04-26T23:21:49.585Z,4.65
2023-04-26T23:24:16.967Z,4.80
2023-04-26T23:26:44.529Z,3.72
2023-04-26T23:29:12.576Z,3.20
2023-04-26T23:31:40.149Z,2.78
2023-04-26T23:34:07.240Z,3.17
2023-04-26T23:36:35.362Z,2.63
2023-04-26T23:39:02.703Z,2.38
2023-04-26T23:41:30.172Z,3.17
2023-04-26T23:43:57.147Z,2.50
2023-04-26T23:46:24.609Z,2.38
2023-04-26T23:48:51.658Z,2.45
2023-04-26T23:51:19.002Z,3.25
2023-04-26T23:53:46.111Z,2.53
2023-04-26T23:56:13.578Z,2.58
2023-04-26T23:58:49.833Z,1.95
